Terminal Aerodrome Forecast
Issued by NWS

Home | Current Version | Previous Version | Text Only | Print | Product List | Glossary On
Versions: 1 2 3 4 5 6 7 8 9 10 11 12 13 14 15 16 17
000
FTUS41 KPBZ 282300
TAFDUJ
TAF
KDUJ 282320Z 0100/0124 13003KT P6SM SCT120
     FM010500 11004KT P6SM OVC060
     FM010900 13006KT 2SM -SN OVC015
     FM011100 16005KT 1SM -SN OVC007
     FM012100 20006KT 1SM -SN OVC004=

USA.gov is the U.S. government's official web portal to all federal, state and local government web resources and services.